CYOW

Ottawa / Macdonald-Cartier International Airport

Ottawa, , Canada
METAR CYOW 232216Z 08005KT 1 1/2SM -FZRA BR OVC005 M02/M02 A3003 RMK FG5SF3 SLP178
Observed Flight Rules
Feb-23 @ 22:16 UTC (15 minutes ago) Instrument Flight Rules
Wind Visibility Clouds Conditions
80° at 5 knots 1 1/2 miles
  • Overcast at 500' AGL
  • Light Freezing
  • Light Rain
  • Mist
Temperatures Readings
Current -2°C / 28°F
Dewpoint -2°C / 28°F
Humidity 100%
Altimeter 30.03" Hg
Pressure 1017.8 hPa
Elevation 114
METAR CYOW 232216Z 08005KT 1 1/2SM -FZRA BR OVC005 M02/M02 A3003 RMK FG5SF3 SLP178
Observed Flight Rules
Feb-23 @ 22:16 UTC
(15 minutes ago)
IFR
Wind Visibility
80° at 5 knots 1 1/2 miles
Clouds
  • Overcast at 500' AGL
Conditions
  • Light Freezing
  • Light Rain
  • Mist
Temperature Dewpoint
-2°C / 28°F -2°C / 28°F
Humidity Altimeter Pressure
100% 30.03" Hg 1017.8 hPa